Latest Weather Observations for Ferny Creek

IDV60801

Issued at 11:02 pm EST Monday 20 May 2019 (issued every 10 minutes, with the page automatically refreshed every 10 minutes)

About weather observations | Map of weather stations | Latest weather observations for VIC | Other Formats
Station Details ID: 086266 Name: FERNY CREEK Lat: -37.87 Lon: 145.35 Height: 512.9 m
Data from the previous 72 hours. | See also: Recent months at Ferny Creek
Date/Time
EST
Temp
°C
App
Temp
°C
Dew
Point
°C
Rel
Hum
%
Delta-T
°C
Wind Press
QNH
hPa
Press
MSL
hPa
Rain since
9am
mm
Dir  Spd
km/h
Gust
km/h
Spd
kts
Gust
kts
20/11:00pm 12.4 10.5 9.1 80 1.7 NW 9 20 5 11 1021.2 1021.3 0.8
20/10:30pm 12.5 10.6 9.0 79 1.8 NW 9 19 5 10 1021.1 1021.2 0.8
20/10:00pm 12.8 11.5 9.3 79 1.8 NW 6 15 3 8 1021.3 1021.4 0.8
20/09:30pm 12.8 11.3 9.3 79 1.8 NW 7 17 4 9 1021.3 1021.4 0.8
20/09:00pm 12.8 11.5 9.8 82 1.6 NW 7 15 4 8 1021.1 1021.2 0.8
20/08:30pm 12.7 11.6 10.1 84 1.4 NW 6 13 3 7 1021.0 1021.1 0.8
20/08:00pm 12.9 11.6 10.1 83 1.5 NW 7 17 4 9 1020.6 1020.8 0.8
20/07:30pm 12.9 11.8 9.9 82 1.6 NNW 6 15 3 8 1020.4 1020.6 0.8
20/07:00pm 13.3 12.3 10.3 82 1.6 NNW 6 15 3 8 1020.1 1020.3 0.8
20/06:30pm 13.4 12.1 10.0 80 1.8 N 7 19 4 10 1019.8 1019.9 0.8
20/06:00pm 13.2 12.2 10.2 82 1.6 N 6 13 3 7 1019.7 1019.8 0.8
20/05:30pm 13.4 12.2 10.2 81 1.7 N 7 22 4 12 1019.3 1019.4 0.8
20/05:00pm 13.8 12.6 10.4 80 1.8 N 7 24 4 13 1019.2 1019.3 0.8
20/04:30pm 13.9 12.7 10.3 79 1.9 N 7 19 4 10 1018.7 1018.9 0.8
20/04:00pm 13.9 12.3 10.3 79 1.9 N 9 17 5 9 1018.6 1018.8 0.8
20/03:30pm 13.9 12.4 10.5 80 1.8 NNW 9 22 5 12 1019.2 1019.3 0.8
20/03:00pm 14.3 12.8 10.7 79 1.9 N 9 22 5 12 1019.0 1019.1 0.8
20/02:30pm 14.2 12.4 10.8 80 1.8 N 11 32 6 17 1019.1 1019.2 0.8
20/02:00pm 14.8 13.4 11.0 78 2.1 NNW 9 20 5 11 1019.0 1019.1 0.8
20/01:30pm 14.1 12.6 10.7 80 1.8 N 9 20 5 11 1019.1 1019.2 0.8
20/01:00pm 13.4 11.5 10.4 82 1.6 NNE 11 30 6 16 1019.1 1019.2 0.8
20/12:30pm 12.4 9.2 10.0 85 1.3 NNE 17 39 9 21 1019.6 1019.7 0.8
20/12:00pm 12.0 9.2 9.9 87 1.1 NNE 15 39 8 21 1020.0 1020.2 0.6
20/11:30am 13.2 9.7 8.9 75 2.2 N 17 32 9 17 1020.8 1021.0 0.0
20/11:00am 13.6 10.5 8.9 73 2.4 NNE 15 33 8 18 1021.3 1021.4 0.0
20/10:30am 13.3 9.8 8.6 73 2.4 NNE 17 35 9 19 1021.8 1022.0 0.0
20/10:00am 13.7 10.1 8.3 70 2.8 NNE 17 35 9 19 1022.1 1022.3 0.0
20/09:30am 13.6 10.3 8.0 69 2.9 NNE 15 32 8 17 1022.5 1022.7 0.0
20/09:00am 13.9 10.9 7.9 67 3.0 N 13 24 7 13 1022.8 1023.0 0.4
20/08:30am 13.9 10.4 7.4 65 3.3 NNE 15 28 8 15 1022.5 1022.7 0.4
20/08:00am 13.1 10.2 8.2 72 2.5 N 13 28 7 15 1022.3 1022.5 0.4
20/07:30am 14.0 10.6 7.5 65 3.3 NNE 15 33 8 18 1022.1 1022.3 0.2
20/07:00am 14.3 11.1 6.9 61 3.7 NNE 13 35 7 19 1022.0 1022.2 0.0
20/06:30am 14.9 11.6 6.2 56 4.3 NNE 13 30 7 16 1022.1 1022.3 0.0
20/06:00am 14.9 11.8 5.7 54 4.5 NNE 11 26 6 14 1022.0 1022.2 0.0
20/05:30am 14.8 11.3 5.6 54 4.5 NNE 13 30 7 16 1022.0 1022.2 0.0
20/05:00am 14.6 11.5 5.4 54 4.5 N 11 24 6 13 1022.1 1022.3 0.0
20/04:30am 14.3 10.7 5.1 54 4.4 NE 13 24 7 13 1022.2 1022.4 0.0
20/04:00am 14.0 10.4 5.1 55 4.3 NE 13 22 7 12 1022.3 1022.5 0.0
20/03:30am 13.9 10.4 5.3 56 4.2 NE 13 26 7 14 1022.7 1022.9 0.0
20/03:00am 13.6 9.9 4.7 55 4.2 NE 13 30 7 16 1023.1 1023.2 0.0
20/02:30am 13.5 9.5 4.9 56 4.1 NE 15 26 8 14 1023.3 1023.5 0.0
20/02:00am 13.2 9.9 4.6 56 4.0 NNE 11 26 6 14 1023.6 1023.8 0.0
20/01:30am 13.1 10.1 4.0 54 4.2 NE 9 22 5 12 1023.8 1024.0 0.0
20/01:00am 13.3 9.9 3.9 53 4.4 NNE 11 20 6 11 1024.0 1024.2 0.0
20/12:30am 13.2 9.8 4.1 54 4.3 NE 11 26 6 14 1024.2 1024.4 0.0
20/12:00am 13.2 10.3 4.6 56 4.0 NNE 9 20 5 11 1024.6 1024.8 0.0
 
Date/Time
EST
Temp
°C
App
Temp
°C
Dew
Point
°C
Rel
Hum
%
Delta-T
°C
Wind Press
QNH
hPa
Press
MSL
hPa
Rain since
9am
mm
Dir  Spd
km/h
Gust
km/h
Spd
kts
Gust
kts
19/11:30pm 12.8 10.0 5.0 59 3.7 NNE 9 19 5 10 1024.7 1024.9 0.0
19/11:00pm 13.0 10.3 5.4 60 3.6 NNE 9 19 5 10 1024.9 1025.2 0.0
19/10:30pm 13.0 10.3 5.7 61 3.5 NNE 9 28 5 15 1025.2 1025.4 0.0
19/10:00pm 12.8 10.2 6.2 64 3.2 N 9 19 5 10 1025.6 1025.8 0.0
19/09:30pm 13.0 10.1 6.6 65 3.2 NNE 11 24 6 13 1025.9 1026.1 0.0
19/09:00pm 12.9 10.8 6.5 65 3.1 N 7 19 4 10 1026.0 1026.2 0.0
19/08:30pm 12.7 10.5 6.3 65 3.1 NNE 7 19 4 10 1026.0 1026.2 0.0
19/08:00pm 13.1 10.8 5.8 61 3.5 N 7 15 4 8 1026.0 1026.2 0.0
19/07:30pm 13.3 10.9 5.2 58 3.9 N 7 17 4 9 1026.1 1026.3 0.0
19/07:00pm 13.0 10.9 5.7 61 3.5 NNW 6 11 3 6 1026.1 1026.3 0.0
19/06:30pm 13.1 11.6 6.7 65 3.2 N 4 9 2 5 1026.1 1026.3 0.0
19/06:00pm 13.1 11.6 6.7 65 3.1 NNW 4 7 2 4 1026.1 1026.3 0.0
19/05:30pm 13.0 11.9 6.8 66 3.1 NW 2 6 1 3 1026.0 1026.2 0.0
19/05:00pm 13.6 12.2 7.2 65 3.2 N 4 9 2 5 1026.1 1026.3 0.0
19/04:30pm 14.3 12.6 7.4 63 3.5 NNE 6 11 3 6 1026.1 1026.3 0.0
19/04:00pm 15.1 12.8 7.4 60 3.9 NNE 9 15 5 8 1026.4 1026.6 0.0
19/03:30pm 15.1 13.4 7.4 60 3.9 NE 6 13 3 7 1026.4 1026.6 0.0
19/03:00pm 16.1 14.8 7.6 57 4.3 NNE 4 9 2 5 1026.5 1026.7 0.0
19/02:30pm 16.5 14.8 7.4 55 4.7 NNE 6 13 3 7 1026.8 1027.1 0.0
19/02:00pm 15.2 12.8 7.0 58 4.1 NNE 9 19 5 10 1026.9 1027.2 0.0
19/01:30pm 15.2 13.2 7.0 58 4.1 NNE 7 20 4 11 1027.3 1027.5 0.0
19/01:00pm 15.9 13.5 7.1 56 4.4 N 9 20 5 11 1027.5 1027.7 0.0
19/12:30pm 16.0 13.9 6.7 54 4.7 NNE 7 17 4 9 1027.9 1028.1 0.0
19/12:00pm 16.1 14.0 6.8 54 4.7 NNE 7 22 4 12 1028.5 1028.8 0.0
19/11:30am 16.0 14.0 6.4 53 4.8 NNE 6 13 3 7 1028.9 1029.2 0.0
19/11:00am 15.3 13.0 5.8 53 4.6 N 7 17 4 9 1029.4 1029.6 0.0
19/10:30am 15.8 13.9 6.8 55 4.5 N 6 9 3 5 1029.6 1029.8 0.0
19/10:00am 14.8 13.2 6.4 57 4.1 NNW 4 9 2 5 1029.7 1029.9 0.0
19/09:30am 15.5 13.7 7.3 58 4.2 N 6 11 3 6 1029.7 1029.9 0.0
19/09:00am 13.8 12.2 6.4 61 3.6 NNW 4 9 2 5 1029.7 1029.9 0.0
19/08:30am 13.4 12.2 6.3 62 3.5 NNW 2 6 1 3 1029.6 1029.8 0.0
19/08:00am 13.1 11.8 6.0 62 3.4 N 2 4 1 2 1029.5 1029.7 0.0
19/07:30am 12.9 11.2 6.0 63 3.4 N 4 11 2 6 1029.1 1029.4 0.0
19/07:00am 12.6 11.3 6.0 64 3.2 N 2 6 1 3 1028.9 1029.2 0.0
19/06:30am 12.5 11.6 5.9 64 3.2 CALM 0 2 0 1 1028.9 1029.2 0.0
19/06:00am 12.4 11.5 6.0 65 3.1 CALM 0 0 0 0 1028.7 1029.0 0.0
19/05:30am 12.2 11.2 5.8 65 3.1 CALM 0 0 0 0 1028.7 1029.0 0.0
19/05:00am 12.2 10.5 5.8 65 3.1 ENE 4 6 2 3 1028.7 1029.0 0.0
19/04:30am 12.4 11.1 6.0 65 3.1 NNE 2 7 1 4 1028.8 1029.1 0.0
19/04:00am 11.8 10.5 5.9 67 2.8 NE 2 4 1 2 1028.8 1029.1 0.0
19/03:30am 11.7 10.4 6.0 68 2.7 ENE 2 4 1 2 1028.7 1029.0 0.0
19/03:00am 11.4 10.0 5.7 68 2.7 ENE 2 4 1 2 1028.8 1029.1 0.0
19/02:30am 11.7 10.4 6.0 68 2.7 NE 2 7 1 4 1028.9 1029.2 0.0
19/02:00am 11.5 10.2 6.0 69 2.6 NNE 2 2 1 1 1029.0 1029.3 0.0
19/01:30am 12.1 11.0 5.0 62 3.4 CALM 0 0 0 0 1029.1 1029.4 0.0
19/01:00am 12.0 11.0 5.4 64 3.1 CALM 0 4 0 2 1029.4 1029.6 0.0
19/12:30am 12.0 11.1 6.1 67 2.9 CALM 0 0 0 0 1029.6 1029.8 0.0
19/12:00am 12.3 11.1 6.4 67 2.9 NNW 2 4 1 2 1029.9 1030.1 0.0
 
Date/Time
EST
Temp
°C
App
Temp
°C
Dew
Point
°C
Rel
Hum
%
Delta-T
°C
Wind Press
QNH
hPa
Press
MSL
hPa
Rain since
9am
mm
Dir  Spd
km/h
Gust
km/h
Spd
kts
Gust
kts
18/11:30pm 12.7 11.5 6.3 65 3.1 NNW 2 6 1 3 1030.0 1030.3 0.0
18/11:00pm 12.5 11.2 5.9 64 3.2 NNW 2 4 1 2 1029.8 1030.0 0.0
18/10:30pm 12.8 11.5 5.9 63 3.3 NNW 2 4 1 2 1030.0 1030.3 0.0
18/10:00pm 12.8 11.5 5.9 63 3.3 NNW 2 4 1 2 1030.2 1030.5 0.0
18/09:30pm 12.3 10.9 5.7 64 3.2 NNE 2 6 1 3 1030.1 1030.4 0.0
18/09:00pm 12.0 11.0 5.6 65 3.0 CALM 0 0 0 0 1030.1 1030.4 0.0
18/08:30pm 11.7 10.9 6.4 70 2.6 CALM 0 2 0 1 1030.3 1030.6 0.0
18/08:00pm 11.6 10.5 6.9 73 2.3 NNE 2 2 1 1 1030.2 1030.5 0.0
18/07:30pm 11.4 9.9 6.7 73 2.3 ENE 4 6 2 3 1030.2 1030.5 0.0
18/07:00pm 11.5 10.4 6.8 73 2.3 NE 2 4 1 2 1030.1 1030.4 0.0
18/06:30pm 11.6 10.0 6.3 70 2.6 ESE 4 6 2 3 1029.8 1030.0 0.0
18/06:00pm 12.9 11.7 6.5 65 3.1 NE 2 4 1 2 1029.1 1029.4 0.0
18/05:30pm 13.1 11.9 6.5 64 3.2 NNE 2 6 1 3 1028.7 1029.0 0.0
18/05:00pm 13.3 12.6 6.9 65 3.2 CALM 0 0 0 0 1028.6 1028.9 0.0
18/04:30pm 14.7 13.7 5.5 54 4.5 CALM 0 2 0 1 1028.8 1029.1 0.0
18/04:00pm 15.4 14.1 6.2 54 4.5 N 2 9 1 5 1028.8 1029.1 0.0
18/03:30pm 16.4 15.0 5.7 49 5.3 N 2 6 1 3 1028.6 1028.9 0.0
18/03:00pm 16.7 15.1 6.5 51 5.1 N 4 9 2 5 1028.8 1029.1 0.0
18/02:30pm 16.8 15.3 6.6 51 5.2 N 4 7 2 4 1028.9 1029.2 0.0
18/02:00pm 15.4 13.4 6.2 54 4.5 NE 6 13 3 7 1029.3 1029.5 0.0
18/01:30pm 15.3 13.3 6.1 54 4.6 NNW 6 15 3 8 1029.4 1029.6 0.0
18/01:00pm 14.8 12.8 6.4 57 4.1 NNW 6 13 3 7 1029.9 1030.1 0.0
18/12:30pm 14.8 12.7 5.9 55 4.4 NNW 6 13 3 7 1030.2 1030.5 0.0
18/12:00pm 15.4 13.9 6.7 56 4.3 N 4 9 2 5 1030.4 1030.7 0.0
18/11:30am 15.3 13.3 6.1 54 4.6 NNW 6 13 3 7 1030.7 1031.0 0.0
18/11:00am 16.7 15.2 6.8 52 5.0 N 4 9 2 5 1030.8 1031.1 0.0
18/10:30am 16.1 14.3 7.3 56 4.5 ENE 6 7 3 4 1030.9 1031.2 0.0
18/10:00am 15.5 14.0 6.8 56 4.3 ENE 4 6 2 3 1030.9 1031.2 0.0
18/09:30am 14.9 13.2 6.0 55 4.4 E 4 6 2 3 1030.7 1031.0 0.0
18/09:00am 14.3 12.5 5.4 55 4.3 E 4 6 2 3 1030.6 1030.9 0.0
18/08:30am 14.0 13.1 5.9 58 4.0 CALM 0 2 0 1 1030.5 1030.8 0.0
18/08:00am 12.0 11.0 5.6 65 3.0 CALM 0 0 0 0 1030.3 1030.6 0.0
18/07:30am 10.8 9.7 5.1 68 2.7 CALM 0 0 0 0 1029.9 1030.1 0.0
18/07:00am 10.1 9.0 5.3 72 2.2 CALM 0 0 0 0 1029.7 1029.9 0.0
18/06:30am 9.7 8.7 5.5 75 2.0 CALM 0 0 0 0 1029.4 1029.6 0.0
18/06:00am 9.8 8.8 5.4 74 2.0 CALM 0 0 0 0 1029.1 1029.4 0.0
18/05:30am 9.6 8.6 5.4 75 2.0 CALM 0 0 0 0 1029.0 1029.3 0.0
18/05:00am 9.3 7.9 5.3 76 1.8 SSW 2 2 1 1 1029.1 1029.4 0.0
18/04:30am 9.7 8.7 5.7 76 1.9 CALM 0 0 0 0 1028.8 1029.1 0.0
18/04:00am 9.4 8.4 5.4 76 1.9 CALM 0 4 0 2 1028.8 1029.1 0.0
18/03:30am 9.7 8.6 5.1 73 2.1 CALM 0 0 0 0 1028.7 1029.0 0.0
18/03:00am 9.8 8.8 5.6 75 2.0 CALM 0 0 0 0 1028.9 1029.2 0.0
18/02:30am 10.0 9.0 5.8 75 2.0 CALM 0 0 0 0 1028.9 1029.2 0.0
18/02:00am 10.2 9.2 5.8 74 2.1 CALM 0 0 0 0 1028.8 1029.1 0.0
18/01:30am 10.1 9.2 5.9 75 2.0 CALM 0 0 0 0 1028.7 1029.0 0.0
18/01:00am 9.5 8.5 5.7 77 1.8 CALM 0 0 0 0 1028.7 1029.0 0.0
18/12:30am 9.8 8.8 5.8 76 1.9 CALM 0 0 0 0 1028.7 1029.0 0.0
18/12:00am 9.5 8.5 5.7 77 1.8 CALM 0 0 0 0 1028.7 1029.0 0.0
 
Date/Time
EST
Temp
°C
App
Temp
°C
Dew
Point
°C
Rel
Hum
%
Delta-T
°C
Wind Press
QNH
hPa
Press
MSL
hPa
Rain since
9am
mm
Dir  Spd
km/h
Gust
km/h
Spd
kts
Gust
kts
17/11:30pm 10.4 9.4 5.8 73 2.2 CALM 0 2 0 1 1028.8 1029.1 0.0

Other formats

Comma delimited format used in spreadsheet applications
http://www.bom.gov.au/fwo/IDV60801/IDV60801.94872.axf

JavaScript Object Notation format (JSON) in row-major order
http://www.bom.gov.au/fwo/IDV60801/IDV60801.94872.json

Data quality

Most of these data are generated automatically and are frequently updated. Quality checks on data are not normally performed. It is possible for incorrect values to appear. Refer to information at About Latest Weather Observations and please check the disclaimer before using these data.